Time;durP1;ratioP1;P1;durP2;ratioP2;P2;SDS_P1;SDS_P2;PMS_P1;PMS_P2;Temp;Humidity;BMP_temperature;BMP_pressure;BME280_temperature;BME280_humidity;BME280_pressure;Samples;Min_cycle;Max_cycle;Signal;HPM_P1;HPM_P2
2020/12/27 00:02:12;;;;;;;2.17;1.90;;;2.90;96.80;;;;;;6218497;22;20004;-77
2020/12/27 00:04:41;;;;;;;4.10;2.70;;;2.90;97.10;;;;;;6247145;23;20543;-77
2020/12/27 00:07:12;;;;;;;3.33;3.00;;;2.90;97.50;;;;;;6219772;23;20004;-77
2020/12/27 00:09:38;;;;;;;4.53;2.60;;;2.80;97.90;;;;;;6220394;23;20444;-77
2020/12/27 00:12:05;;;;;;;3.10;2.90;;;2.80;98.00;;;;;;6220079;23;20004;-78
2020/12/27 00:14:30;;;;;;;3.70;2.90;;;2.90;98.30;;;;;;6220095;23;20001;-78
2020/12/27 00:17:02;;;;;;;3.70;3.00;;;2.90;98.30;;;;;;6220187;23;20008;-78
2020/12/27 00:19:28;;;;;;;4.88;2.60;;;2.90;98.00;;;;;;6220465;23;19999;-77
2020/12/27 00:21:53;;;;;;;5.70;3.13;;;2.90;98.10;;;;;;6246770;23;20083;-78
2020/12/27 00:24:19;;;;;;;3.77;3.03;;;2.90;98.20;;;;;;6247067;23;20054;-77
2020/12/27 00:26:44;;;;;;;3.50;3.20;;;2.80;98.30;;;;;;6246856;23;20051;-78
2020/12/27 00:29:10;;;;;;;3.40;2.90;;;2.80;98.50;;;;;;6246932;23;20011;-78
2020/12/27 00:31:36;;;;;;;3.60;3.30;;;2.80;98.80;;;;;;6219671;23;20336;-78
2020/12/27 00:34:01;;;;;;;4.93;3.37;;;2.80;98.90;;;;;;6220057;23;20053;-78
2020/12/27 00:36:27;;;;;;;2.93;2.63;;;2.80;99.10;;;;;;6219702;23;20012;-77
2020/12/27 00:38:53;;;;;;;2.77;2.57;;;2.80;99.20;;;;;;6246853;23;20007;-78
2020/12/27 00:41:23;;;;;;;4.63;3.77;;;2.80;99.40;;;;;;6219541;23;20055;-77
2020/12/27 00:43:51;;;;;;;4.93;4.23;;;2.80;99.90;;;;;;6219321;23;20591;-78
2020/12/27 00:46:17;;;;;;;4.80;4.40;;;2.80;99.90;;;;;;6219234;23;20000;-78
2020/12/27 00:48:42;;;;;;;5.40;4.03;;;2.80;99.90;;;;;;6219253;23;20061;-78
2020/12/27 00:51:08;;;;;;;3.73;3.33;;;2.80;99.90;;;;;;6219306;23;20043;-77
2020/12/27 00:53:34;;;;;;;4.47;3.53;;;2.80;99.90;;;;;;6219203;23;20000;-77
2020/12/27 00:56:00;;;;;;;5.13;3.40;;;2.80;99.90;;;;;;6219639;23;20310;-78
2020/12/27 00:58:26;;;;;;;5.17;3.43;;;2.90;99.90;;;;;;6219410;23;20027;-78
2020/12/27 01:00:51;;;;;;;4.33;3.57;;;2.90;99.90;;;;;;6219426;23;20352;-77
2020/12/27 01:03:17;;;;;;;5.60;4.23;;;2.90;99.90;;;;;;6219261;23;20014;-78
2020/12/27 01:05:43;;;;;;;4.23;3.53;;;2.90;99.90;;;;;;6219279;23;20004;-78
2020/12/27 01:08:08;;;;;;;3.73;3.30;;;2.90;99.90;;;;;;6246416;23;20000;-77
2020/12/27 01:10:34;;;;;;;5.03;4.20;;;2.90;99.90;;;;;;6219580;23;20008;-77
2020/12/27 01:13:00;;;;;;;4.03;3.63;;;2.80;99.90;;;;;;6219087;23;20008;-78
2020/12/27 01:15:25;;;;;;;5.83;4.00;;;2.80;99.90;;;;;;6219408;23;20000;-77
2020/12/27 01:17:51;;;;;;;6.60;4.23;;;2.80;99.90;;;;;;6246448;23;19996;-78
2020/12/27 01:20:17;;;;;;;5.33;3.43;;;2.70;99.90;;;;;;6219567;23;20015;-77
2020/12/27 01:22:42;;;;;;;6.03;4.00;;;2.70;99.90;;;;;;6219255;23;20004;-77
2020/12/27 01:25:11;;;;;;;3.93;3.57;;;2.60;99.90;;;;;;6219559;23;20004;-77
2020/12/27 01:27:37;;;;;;;4.27;3.53;;;2.70;99.90;;;;;;6246444;23;20024;-77
2020/12/27 01:30:04;;;;;;;5.57;4.33;;;2.60;99.90;;;;;;6219674;23;20504;-78
2020/12/27 01:32:30;;;;;;;7.13;4.60;;;2.60;99.90;;;;;;6219411;23;20030;-77
2020/12/27 01:34:56;;;;;;;5.67;3.87;;;2.60;99.90;;;;;;6246172;23;19992;-77
2020/12/27 01:37:21;;;;;;;4.37;3.97;;;2.60;99.90;;;;;;6246091;23;20062;-77
2020/12/27 01:39:47;;;;;;;4.67;4.10;;;2.50;99.90;;;;;;6246205;23;19997;-77
2020/12/27 01:42:13;;;;;;;4.03;3.63;;;2.50;99.90;;;;;;6219108;23;19996;-77
2020/12/27 01:44:38;;;;;;;5.20;3.60;;;2.50;99.90;;;;;;6219489;23;20378;-77
2020/12/27 01:47:27;;;;;;;9.23;3.60;;;2.50;99.90;;;;;;6219313;23;20486;-77
2020/12/27 01:49:53;;;;;;;5.50;3.50;;;2.50;99.90;;;;;;6246113;23;20008;-78
2020/12/27 01:52:19;;;;;;;5.57;4.33;;;2.50;99.90;;;;;;6246039;23;20095;-77
2020/12/27 01:54:45;;;;;;;4.60;3.77;;;2.40;99.90;;;;;;6246239;23;20055;-78
2020/12/27 01:57:13;;;;;;;4.77;3.40;;;2.40;99.90;;;;;;6219042;23;20049;-77
2020/12/27 01:59:40;;;;;;;4.00;2.90;;;2.40;99.90;;;;;;6246105;23;20004;-78
2020/12/27 02:02:07;;;;;;;3.87;3.57;;;2.40;99.90;;;;;;6245918;23;20028;-78
2020/12/27 02:04:33;;;;;;;3.83;3.27;;;2.30;99.90;;;;;;6219207;23;20077;-77
2020/12/27 02:06:59;;;;;;;5.33;3.13;;;2.30;99.90;;;;;;6219014;23;20031;-77
2020/12/27 02:09:25;;;;;;;4.00;3.60;;;2.30;99.90;;;;;;6219149;23;20364;-78
2020/12/27 02:12:11;;;;;;;5.53;3.23;;;2.30;99.80;;;;;;6218912;23;20004;-77
2020/12/27 02:14:37;;;;;;;3.93;2.70;;;2.20;99.30;;;;;;6218848;23;20004;-78
2020/12/27 02:17:07;;;;;;;3.30;3.00;;;2.20;99.00;;;;;;6245937;23;19997;-78
2020/12/27 02:19:33;;;;;;;5.23;2.70;;;2.20;99.10;;;;;;6245886;23;20024;-78
2020/12/27 02:22:00;;;;;;;4.13;2.73;;;2.20;99.40;;;;;;6218886;23;20336;-77
2020/12/27 02:24:26;;;;;;;3.17;2.87;;;2.20;99.20;;;;;;6218926;23;20004;-78
2020/12/27 02:26:57;;;;;;;3.87;2.67;;;2.20;98.80;;;;;;6245074;23;20011;-77
2020/12/27 02:29:23;;;;;;;3.87;3.03;;;2.20;98.80;;;;;;6245776;23;20494;-77
2020/12/27 02:31:48;;;;;;;3.90;2.70;;;2.20;98.30;;;;;;6245691;23;20004;-78
2020/12/27 02:34:14;;;;;;;3.40;2.73;;;2.20;98.40;;;;;;6219057;23;20038;-77
2020/12/27 02:36:40;;;;;;;2.90;2.70;;;2.20;98.20;;;;;;6245210;23;20008;-77
2020/12/27 02:39:10;;;;;;;2.50;2.30;;;2.20;98.20;;;;;;6245736;23;20374;-78
2020/12/27 02:41:36;;;;;;;3.83;2.67;;;2.20;98.00;;;;;;6218713;23;20087;-77
2020/12/27 02:44:02;;;;;;;2.43;2.30;;;2.20;98.10;;;;;;6218781;23;20066;-78
2020/12/27 02:46:28;;;;;;;3.07;2.63;;;2.20;97.80;;;;;;6218909;23;19996;-77
2020/12/27 02:48:54;;;;;;;2.57;2.37;;;2.20;97.70;;;;;;6218882;23;20015;-77
2020/12/27 02:51:21;;;;;;;3.77;2.97;;;2.20;97.80;;;;;;6218623;23;20022;-78
2020/12/27 02:53:50;;;;;;;5.13;3.00;;;2.20;97.70;;;;;;6245689;23;20005;-77
2020/12/27 02:56:17;;;;;;;2.97;2.40;;;2.20;97.80;;;;;;6218406;23;20004;-78
2020/12/27 02:58:47;;;;;;;4.07;2.80;;;2.20;97.50;;;;;;6245700;23;19996;-78
2020/12/27 03:01:13;;;;;;;3.17;2.40;;;2.20;97.40;;;;;;6218540;23;20004;-78
2020/12/27 03:03:39;;;;;;;2.30;2.17;;;2.20;97.60;;;;;;6245648;23;20023;-77
2020/12/27 03:06:05;;;;;;;2.57;2.37;;;2.20;97.70;;;;;;6218600;23;20008;-77
2020/12/27 03:08:31;;;;;;;3.73;2.40;;;2.20;97.60;;;;;;6218718;23;20000;-77
2020/12/27 03:10:57;;;;;;;3.07;2.00;;;2.20;97.40;;;;;;6245527;23;20003;-77
2020/12/27 03:13:23;;;;;;;2.70;2.40;;;2.20;97.30;;;;;;6218623;23;20442;-77
2020/12/27 03:15:51;;;;;;;3.77;2.90;;;2.20;97.30;;;;;;6245273;23;20067;-77
2020/12/27 03:18:17;;;;;;;3.27;2.20;;;2.20;97.30;;;;;;6245619;23;20000;-77
2020/12/27 03:20:43;;;;;;;4.07;2.90;;;2.10;97.20;;;;;;6218786;23;20004;-77
2020/12/27 03:23:09;;;;;;;3.83;2.77;;;2.10;97.30;;;;;;6245483;23;20486;-77
2020/12/27 03:25:35;;;;;;;2.70;2.30;;;2.10;96.80;;;;;;6218441;23;20386;-77
2020/12/27 03:28:01;;;;;;;3.17;2.60;;;2.10;96.60;;;;;;6218662;23;20008;-77
2020/12/27 03:30:26;;;;;;;4.30;2.20;;;2.10;96.50;;;;;;6218703;23;20483;-77
2020/12/27 03:32:52;;;;;;;2.67;2.47;;;2.10;96.90;;;;;;6218518;23;20448;-77
2020/12/27 03:35:17;;;;;;;2.87;2.60;;;2.10;97.10;;;;;;6245360;23;20122;-77
2020/12/27 03:37:43;;;;;;;5.23;2.37;;;2.20;97.40;;;;;;6219108;23;20012;-77
2020/12/27 03:40:09;;;;;;;2.90;2.53;;;2.20;96.90;;;;;;6220604;23;20027;-77
2020/12/27 03:42:34;;;;;;;3.53;2.27;;;2.20;96.80;;;;;;6220326;23;20011;-77
2020/12/27 03:45:01;;;;;;;2.87;2.53;;;2.20;96.70;;;;;;6220551;23;20004;-78
2020/12/27 03:47:27;;;;;;;3.17;2.20;;;2.10;96.50;;;;;;6247331;23;20004;-77
2020/12/27 03:49:53;;;;;;;2.60;2.40;;;2.20;96.70;;;;;;6220568;23;20451;-77
2020/12/27 03:52:18;;;;;;;2.60;2.40;;;2.20;96.30;;;;;;6247181;23;20008;-78
2020/12/27 03:54:44;;;;;;;2.40;2.20;;;2.10;96.00;;;;;;6220561;23;20028;-78
2020/12/27 03:57:13;;;;;;;5.83;2.83;;;2.20;96.40;;;;;;6247173;23;19996;-77
2020/12/27 03:59:38;;;;;;;3.20;2.73;;;2.20;96.40;;;;;;6247253;23;20007;-77
2020/12/27 04:02:04;;;;;;;4.03;2.23;;;2.30;96.40;;;;;;6220273;23;20004;-78
2020/12/27 04:04:30;;;;;;;2.77;2.27;;;2.20;96.10;;;;;;6220284;23;20008;-77
2020/12/27 04:06:55;;;;;;;2.63;2.00;;;2.20;96.20;;;;;;6247006;23;20455;-77
2020/12/27 04:09:21;;;;;;;1.83;1.70;;;2.30;96.10;;;;;;6247140;23;20139;-78
2020/12/27 04:11:47;;;;;;;2.27;1.93;;;2.30;95.50;;;;;;6220211;23;20011;-77
2020/12/27 04:14:12;;;;;;;3.43;2.50;;;2.20;95.10;;;;;;6247052;23;20000;-77
2020/12/27 04:16:38;;;;;;;2.30;2.07;;;2.20;94.90;;;;;;6247102;23;20498;-78
2020/12/27 04:19:04;;;;;;;3.33;2.03;;;2.10;95.20;;;;;;6247094;23;19996;-78
2020/12/27 04:21:29;;;;;;;1.40;1.30;;;2.10;94.30;;;;;;6219867;23;20008;-77
2020/12/27 04:23:55;;;;;;;1.53;1.43;;;2.10;94.50;;;;;;6246889;23;20125;-78
2020/12/27 04:26:22;;;;;;;1.60;1.50;;;2.10;94.40;;;;;;6246912;23;20030;-77
2020/12/27 04:28:48;;;;;;;2.17;1.90;;;2.10;94.60;;;;;;6220078;23;20083;-78
2020/12/27 04:31:20;;;;;;;2.20;2.00;;;2.10;94.70;;;;;;6219763;23;20004;-78
2020/12/27 04:33:47;;;;;;;3.03;2.03;;;2.10;94.00;;;;;;6246921;23;20001;-77
2020/12/27 04:36:15;;;;;;;2.27;1.90;;;2.10;93.90;;;;;;6246624;23;20014;-78
2020/12/27 04:38:41;;;;;;;2.20;2.00;;;2.10;94.00;;;;;;6246884;23;19996;-78
2020/12/27 04:41:07;;;;;;;2.33;2.17;;;2.10;93.70;;;;;;6246536;23;20000;-78
2020/12/27 04:43:36;;;;;;;3.37;1.80;;;2.20;93.80;;;;;;6246687;23;20000;-78
2020/12/27 04:46:04;;;;;;;2.23;2.03;;;2.20;94.10;;;;;;6219727;23;20050;-78
2020/12/27 04:48:31;;;;;;;2.60;1.87;;;2.10;94.40;;;;;;6219845;23;20011;-77
2020/12/27 04:51:04;;;;;;;2.23;1.90;;;2.10;94.10;;;;;;6219452;23;20628;-78
2020/12/27 04:53:31;;;;;;;2.00;1.80;;;2.10;94.40;;;;;;6219860;23;20058;-77
2020/12/27 04:56:00;;;;;;;2.83;2.50;;;2.00;94.00;;;;;;6246701;23;20432;-77
2020/12/27 04:58:25;;;;;;;2.40;2.13;;;2.00;94.10;;;;;;6219965;23;20007;-77
2020/12/27 05:00:51;;;;;;;2.93;2.63;;;2.00;94.60;;;;;;6219728;23;20008;-77
2020/12/27 05:03:17;;;;;;;3.43;2.77;;;1.90;94.80;;;;;;6246250;23;20004;-78
2020/12/27 05:05:43;;;;;;;2.60;2.20;;;2.00;95.10;;;;;;6219458;23;20011;-78
2020/12/27 05:08:09;;;;;;;3.67;2.07;;;1.90;94.80;;;;;;6219703;23;20008;-78
2020/12/27 05:10:44;;;;;;;2.77;2.30;;;1.90;94.80;;;;;;6219601;23;20062;-78
2020/12/27 05:13:11;;;;;;;3.90;2.50;;;1.90;94.80;;;;;;6219514;23;20015;-78
2020/12/27 05:15:41;;;;;;;2.50;2.30;;;2.00;95.10;;;;;;6219259;23;20000;-78
2020/12/27 05:18:07;;;;;;;3.17;2.30;;;1.90;94.40;;;;;;6246395;23;20435;-78
2020/12/27 05:20:34;;;;;;;4.47;2.23;;;1.90;94.50;;;;;;6246464;23;20003;-78
2020/12/27 05:23:02;;;;;;;2.20;1.87;;;1.80;94.80;;;;;;6219519;23;20008;-78
2020/12/27 05:25:32;;;;;;;2.10;2.00;;;1.80;95.00;;;;;;6219244;23;20007;-77
2020/12/27 05:28:10;;;;;;;2.57;2.30;;;1.80;94.90;;;;;;6219508;23;20015;-78
2020/12/27 05:30:36;;;;;;;3.73;2.37;;;1.80;95.20;;;;;;6246068;23;20428;-78
2020/12/27 05:33:14;;;;;;;2.97;2.67;;;1.80;95.20;;;;;;6219367;23;20335;-78
2020/12/27 05:35:40;;;;;;;2.83;2.40;;;1.90;95.30;;;;;;6245956;23;20076;-78
2020/12/27 05:38:07;;;;;;;2.43;2.23;;;1.90;95.40;;;;;;6219394;23;20008;-78
2020/12/27 05:40:38;;;;;;;2.80;2.13;;;1.90;95.30;;;;;;6246242;23;19996;-78
2020/12/27 05:43:21;;;;;;;3.57;2.40;;;1.90;95.10;;;;;;6219344;23;20012;-78
2020/12/27 05:45:47;;;;;;;2.63;2.43;;;1.80;95.30;;;;;;6246105;23;20079;-78
2020/12/27 05:48:13;;;;;;;3.70;2.37;;;1.80;95.60;;;;;;6246162;23;20349;-78
2020/12/27 05:50:41;;;;;;;2.53;2.33;;;1.80;95.50;;;;;;6246153;23;20321;-78
2020/12/27 05:53:27;;;;;;;2.40;2.00;;;1.80;95.70;;;;;;6219219;23;20070;-78
2020/12/27 05:55:53;;;;;;;2.77;2.53;;;1.80;95.70;;;;;;6245973;23;20001;-78
2020/12/27 05:58:21;;;;;;;2.87;2.53;;;1.80;95.70;;;;;;6219236;23;20043;-78
2020/12/27 06:00:55;;;;;;;2.73;2.30;;;1.80;95.70;;;;;;6219118;23;19996;-78
2020/12/27 06:03:23;;;;;;;5.87;2.40;;;1.80;95.50;;;;;;6246089;23;20046;-78
2020/12/27 06:05:52;;;;;;;2.73;2.47;;;1.80;95.50;;;;;;6218970;23;20008;-78
2020/12/27 06:08:43;;;;;;;2.67;2.30;;;1.70;95.50;;;;;;6246017;23;20004;-78
2020/12/27 06:11:23;;;;;;;4.33;2.73;;;1.70;95.70;;;;;;6229464;23;20011;-78
2020/12/27 06:14:16;;;;;;;2.50;2.17;;;1.70;95.70;;;;;;6219118;23;20258;-78
2020/12/27 06:16:50;;;;;;;2.30;1.97;;;1.70;95.60;;;;;;6245783;23;20447;-78
2020/12/27 06:19:26;;;;;;;3.00;2.27;;;1.70;95.70;;;;;;6245999;23;19996;-78
2020/12/27 06:22:12;;;;;;;2.70;2.30;;;1.70;95.50;;;;;;6218787;23;20008;-78
2020/12/27 06:24:38;;;;;;;2.53;2.33;;;1.70;95.60;;;;;;6245016;23;20030;-78
2020/12/27 06:27:07;;;;;;;2.13;1.93;;;1.80;95.40;;;;;;6218992;23;20004;-78
2020/12/27 06:29:40;;;;;;;3.43;2.63;;;1.90;95.50;;;;;;6219171;23;20011;-78
2020/12/27 06:32:07;;;;;;;2.30;2.10;;;1.80;95.20;;;;;;6218667;23;20008;-78
2020/12/27 06:34:33;;;;;;;3.50;2.37;;;1.80;95.50;;;;;;6218968;23;20090;-78
2020/12/27 06:36:59;;;;;;;2.17;2.03;;;1.70;95.30;;;;;;6245497;23;20062;-78
2020/12/27 06:39:29;;;;;;;1.90;1.70;;;1.70;94.90;;;;;;6245752;23;20000;-78
2020/12/27 06:42:07;;;;;;;2.77;2.40;;;1.60;95.00;;;;;;6218590;23;20018;-78
2020/12/27 06:44:49;;;;;;;3.23;2.30;;;1.50;95.30;;;;;;6218755;23;20004;-78
2020/12/27 06:47:16;;;;;;;5.20;2.95;;;1.50;95.40;;;;;;6245733;23;20011;-78
2020/12/27 06:49:43;;;;;;;4.20;2.97;;;1.40;95.60;;;;;;6218824;23;20012;-77
2020/12/27 06:52:32;;;;;;;3.20;2.17;;;1.40;95.70;;;;;;6218647;23;20008;-78
2020/12/27 06:55:00;;;;;;;2.40;2.10;;;1.40;95.80;;;;;;6200999;23;20008;-78
2020/12/27 06:57:46;;;;;;;2.40;2.20;;;1.30;95.90;;;;;;6245672;23;20443;-78
2020/12/27 07:00:26;;;;;;;3.03;2.80;;;1.40;96.20;;;;;;6218740;23;20335;-78
2020/12/27 07:03:16;;;;;;;3.33;2.80;;;1.40;96.00;;;;;;6245324;23;20084;-78
2020/12/27 07:05:47;;;;;;;2.93;2.50;;;1.50;95.40;;;;;;6218779;23;20027;-78
2020/12/27 07:08:15;;;;;;;3.13;2.43;;;1.50;95.00;;;;;;6218743;23;20054;-78
2020/12/27 07:10:49;;;;;;;2.93;2.73;;;1.50;95.20;;;;;;6245417;23;20007;-78
2020/12/27 07:13:16;;;;;;;3.73;2.77;;;1.50;95.30;;;;;;6246458;23;20000;-78
2020/12/27 07:15:58;;;;;;;3.27;2.60;;;1.50;95.20;;;;;;6247670;23;20001;-78
2020/12/27 07:18:28;;;;;;;3.20;2.70;;;1.50;94.90;;;;;;6220309;23;20003;-78
2020/12/27 07:20:59;;;;;;;3.10;2.87;;;1.60;95.30;;;;;;6247642;23;20008;-78
2020/12/27 07:23:32;;;;;;;3.40;3.08;;;1.60;95.50;;;;;;6220907;23;20065;-78
2020/12/27 07:26:03;;;;;;;3.50;3.03;;;1.70;95.30;;;;;;6220557;23;20040;-78
2020/12/27 07:28:30;;;;;;;2.63;2.43;;;1.70;95.40;;;;;;6220627;23;20098;-78
2020/12/27 07:31:03;;;;;;;3.10;2.77;;;1.60;95.20;;;;;;6220370;23;20008;-78
2020/12/27 07:33:31;;;;;;;2.17;2.07;;;1.60;94.80;;;;;;6220445;23;20008;-78
2020/12/27 07:36:08;;;;;;;2.90;2.70;;;1.60;94.60;;;;;;6247318;23;20004;-78
2020/12/27 07:38:39;;;;;;;2.80;2.33;;;1.70;94.30;;;;;;6220518;23;20007;-78
2020/12/27 07:41:06;;;;;;;4.05;2.88;;;1.70;94.60;;;;;;6220432;23;20004;-78
2020/12/27 07:43:32;;;;;;;3.37;2.83;;;1.70;94.60;;;;;;6247128;23;20043;-78
2020/12/27 07:46:08;;;;;;;3.33;2.43;;;1.70;94.10;;;;;;6220539;23;20011;-78
2020/12/27 07:48:40;;;;;;;4.13;2.60;;;1.70;93.20;;;;;;6220368;23;20004;-78
2020/12/27 07:51:12;;;;;;;;;;;1.70;92.80;;;;;;6247689;23;20000;-78
2020/12/27 07:53:37;;;;;;;2.88;2.67;;;1.80;93.40;;;;;;6246910;23;19903;-79
2020/12/27 07:56:03;;;;;;;4.57;3.40;;;1.90;93.00;;;;;;6247226;23;20003;-78
2020/12/27 07:58:32;;;;;;;4.90;4.40;;;1.90;92.60;;;;;;6247051;23;20435;-78
2020/12/27 08:00:58;;;;;;;6.93;4.90;;;2.00;93.20;;;;;;6247148;23;20000;-78
2020/12/27 08:03:24;;;;;;;3.87;3.40;;;2.00;93.00;;;;;;6247097;23;20023;-78
2020/12/27 08:05:59;;;;;;;5.83;4.27;;;2.10;92.60;;;;;;6220223;23;20458;-78
2020/12/27 08:08:25;;;;;;;8.60;4.27;;;2.10;92.80;;;;;;6220168;23;20023;-78
2020/12/27 08:10:52;;;;;;;6.10;3.57;;;2.10;92.70;;;;;;6220257;23;20011;-78
2020/12/27 08:13:20;;;;;;;3.37;3.07;;;2.10;92.30;;;;;;6219983;23;20000;-78
2020/12/27 08:15:46;;;;;;;3.33;3.03;;;2.10;92.50;;;;;;6220398;23;20340;-78
2020/12/27 08:18:12;;;;;;;3.60;2.80;;;2.10;92.40;;;;;;6246857;23;20000;-78
2020/12/27 08:20:49;;;;;;;4.83;2.43;;;2.10;91.90;;;;;;6246726;23;20003;-78
2020/12/27 08:23:15;;;;;;;3.93;2.80;;;2.10;91.50;;;;;;6246742;23;19996;-78
2020/12/27 08:25:42;;;;;;;3.27;2.80;;;2.20;91.60;;;;;;6246133;23;20004;-78
2020/12/27 08:28:12;;;;;;;3.50;2.80;;;2.20;91.00;;;;;;6220203;23;20004;-78
2020/12/27 08:30:38;;;;;;;2.87;2.63;;;2.30;91.10;;;;;;6219840;23;20011;-78
2020/12/27 08:33:11;;;;;;;6.30;4.13;;;2.30;91.00;;;;;;6219833;23;20026;-78
2020/12/27 08:35:40;;;;;;;3.50;3.20;;;2.40;91.10;;;;;;6219843;23;20436;-78
2020/12/27 08:38:24;;;;;;;4.20;3.40;;;2.40;91.10;;;;;;6219971;23;20008;-78
2020/12/27 08:40:58;;;;;;;3.83;3.43;;;2.40;91.10;;;;;;6246775;23;20000;-78
2020/12/27 08:43:39;;;;;;;4.93;3.30;;;2.50;90.80;;;;;;6246849;23;20432;-78
2020/12/27 08:46:10;;;;;;;4.30;3.47;;;2.50;91.10;;;;;;6219807;23;20004;-78
2020/12/27 08:48:42;;;;;;;5.43;3.70;;;2.50;91.50;;;;;;6246758;23;20024;-78
2020/12/27 08:51:10;;;;;;;;;;;2.60;91.60;;;;;;6220414;23;20083;-78
2020/12/27 08:53:43;;;;;;;8.53;5.20;;;3.00;95.10;;;;;;6219249;23;20228;-78
2020/12/27 08:56:10;;;;;;;9.97;5.47;;;3.20;94.00;;;;;;6219917;23;20004;-78
2020/12/27 08:58:36;;;;;;;8.17;5.50;;;3.00;91.70;;;;;;6246586;23;20024;-78
2020/12/27 09:01:02;;;;;;;6.27;4.77;;;3.00;91.50;;;;;;6219299;23;20015;-78
2020/12/27 09:03:27;;;;;;;4.60;4.00;;;3.00;91.70;;;;;;6219822;23;20008;-78
2020/12/27 09:05:56;;;;;;;6.70;4.00;;;3.00;92.00;;;;;;6219802;23;20087;-77
2020/12/27 09:08:21;;;;;;;6.63;4.07;;;3.00;92.00;;;;;;6246552;23;20003;-77
2020/12/27 09:10:50;;;;;;;5.17;3.93;;;3.10;92.20;;;;;;6218966;23;20008;-78
2020/12/27 09:13:16;;;;;;;7.27;3.47;;;3.50;99.90;;;;;;6219241;23;20463;-78
2020/12/27 09:15:48;;;;;;;4.70;3.30;;;3.80;99.90;;;;;;6246324;23;20452;-78
2020/12/27 09:18:27;;;;;;;6.37;5.03;;;4.20;99.90;;;;;;6246155;23;19996;-78
2020/12/27 09:20:58;;;;;;;4.43;3.67;;;4.20;94.50;;;;;;6219251;23;20087;-78
2020/12/27 09:23:24;;;;;;;8.90;5.72;;;4.10;93.00;;;;;;6246169;23;20069;-78
2020/12/27 09:26:09;;;;;;;6.13;4.23;;;3.90;92.10;;;;;;6219460;23;20447;-78
2020/12/27 09:28:37;;;;;;;5.03;4.50;;;3.80;92.60;;;;;;6219632;23;20004;-78
2020/12/27 09:31:08;;;;;;;7.67;4.27;;;3.80;93.00;;;;;;6246499;23;20028;-78
2020/12/27 09:33:36;;;;;;;5.97;3.97;;;3.80;93.20;;;;;;6219498;23;20340;-78
2020/12/27 09:36:04;;;;;;;5.47;4.30;;;3.80;92.50;;;;;;6246046;23;20007;-78
2020/12/27 09:38:34;;;;;;;5.53;4.07;;;3.80;92.40;;;;;;6246188;23;20008;-78
2020/12/27 09:41:11;;;;;;;5.20;4.43;;;3.80;92.60;;;;;;6219346;23;20061;-78
2020/12/27 09:44:03;;;;;;;5.43;4.30;;;3.80;93.20;;;;;;6219364;23;20008;-78
2020/12/27 09:46:38;;;;;;;4.60;3.83;;;3.80;93.00;;;;;;6212058;23;20036;-78
2020/12/27 09:49:21;;;;;;;4.90;4.13;;;3.80;92.80;;;;;;6215905;23;20332;-78
2020/12/27 09:52:15;;;;;;;6.57;4.33;;;3.80;92.50;;;;;;6215030;23;20004;-78
2020/12/27 09:54:44;;;;;;;10.73;4.53;;;3.90;93.00;;;;;;6214344;23;20487;-78
2020/12/27 09:57:17;;;;;;;4.73;4.07;;;3.90;93.20;;;;;;6242082;23;20108;-78
2020/12/27 09:59:43;;;;;;;4.73;4.20;;;3.90;93.10;;;;;;6241680;23;20000;-78
2020/12/27 10:02:09;;;;;;;6.23;4.43;;;4.00;92.80;;;;;;6241438;23;20483;-78
2020/12/27 10:04:38;;;;;;;5.90;3.63;;;4.00;92.50;;;;;;6242227;23;20054;-79
2020/12/27 10:07:04;;;;;;;5.33;4.83;;;4.10;93.60;;;;;;6215847;23;20015;-78
2020/12/27 10:09:30;;;;;;;10.03;4.13;;;4.10;93.70;;;;;;6214318;23;20039;-78
2020/12/27 10:11:56;;;;;;;8.20;4.85;;;4.20;94.10;;;;;;6215160;23;20011;-78
2020/12/27 10:14:21;;;;;;;5.82;4.60;;;4.30;94.30;;;;;;6214819;23;20008;-78
2020/12/27 10:16:47;;;;;;;6.80;3.90;;;4.40;93.20;;;;;;6241455;23;20007;-78
2020/12/27 10:19:12;;;;;;;4.80;4.15;;;4.40;92.70;;;;;;6242349;23;20000;-78
2020/12/27 10:21:38;;;;;;;4.63;3.10;;;4.40;91.40;;;;;;6214852;23;20075;-78
2020/12/27 10:24:04;;;;;;;3.97;3.45;;;4.40;91.30;;;;;;6241724;23;20336;-77
2020/12/27 10:26:30;;;;;;;4.28;3.45;;;4.40;91.40;;;;;;6240446;23;20344;-78
2020/12/27 10:28:56;;;;;;;8.48;5.75;;;4.70;96.20;;;;;;6212296;23;20144;-78
2020/12/27 10:31:21;;;;;;;5.75;3.97;;;4.90;95.40;;;;;;6240476;23;20004;-78
2020/12/27 10:33:47;;;;;;;5.95;3.58;;;5.20;95.60;;;;;;6213456;23;20555;-78
2020/12/27 10:36:15;;;;;;;4.07;3.53;;;5.40;97.10;;;;;;6239762;23;20043;-78
2020/12/27 10:38:41;;;;;;;6.78;3.72;;;5.30;90.90;;;;;;6240235;23;20000;-78
2020/12/27 10:41:07;;;;;;;4.35;3.95;;;5.60;94.00;;;;;;6212913;23;20012;-78
2020/12/27 10:43:33;;;;;;;4.53;3.88;;;5.70;95.30;;;;;;6240706;23;20517;-78
2020/12/27 10:46:03;;;;;;;4.95;3.20;;;5.80;94.30;;;;;;6241645;23;20053;-78
2020/12/27 10:48:33;;;;;;;4.07;3.03;;;5.70;90.70;;;;;;6214276;23;20083;-78
2020/12/27 10:50:59;;;;;;;3.85;3.40;;;5.50;84.00;;;;;;6240705;23;20004;-78
2020/12/27 10:53:25;;;;;;;3.75;3.22;;;5.30;85.50;;;;;;6214814;23;20007;-76
2020/12/27 10:55:51;;;;;;;8.27;5.80;;;5.30;87.00;;;;;;6214487;23;20004;-75
2020/12/27 10:58:17;;;;;;;3.83;3.20;;;5.20;85.10;;;;;;6213708;23;20475;-76
2020/12/27 11:00:44;;;;;;;3.30;2.92;;;5.00;82.00;;;;;;6241218;23;20000;-76
2020/12/27 11:03:10;;;;;;;3.17;2.63;;;4.90;80.90;;;;;;6214451;23;20090;-76
2020/12/27 11:05:38;;;;;;;4.88;3.50;;;5.00;83.90;;;;;;6241062;23;20004;-76
2020/12/27 11:08:05;;;;;;;5.20;3.95;;;5.00;85.70;;;;;;6215129;23;20468;-76
2020/12/27 11:10:30;;;;;;;3.45;2.92;;;5.10;84.70;;;;;;6214159;23;20011;-76
2020/12/27 11:12:56;;;;;;;6.88;4.00;;;5.30;87.80;;;;;;6241133;23;20336;-76
2020/12/27 11:15:21;;;;;;;10.55;5.63;;;5.40;84.90;;;;;;6241403;23;20424;-78
2020/12/27 11:17:47;;;;;;;7.88;4.95;;;5.30;75.80;;;;;;6241164;23;19996;-78
2020/12/27 11:20:13;;;;;;;3.50;2.63;;;5.30;78.10;;;;;;6240569;23;20003;-78
2020/12/27 11:22:40;;;;;;;2.92;2.70;;;5.40;75.30;;;;;;6240748;23;20012;-78
2020/12/27 11:25:07;;;;;;;5.38;2.50;;;5.40;75.80;;;;;;6213927;23;20019;-78
2020/12/27 11:27:32;;;;;;;3.30;2.58;;;5.40;76.10;;;;;;6214251;23;20012;-78
2020/12/27 11:29:58;;;;;;;8.82;3.47;;;5.40;72.10;;;;;;6213833;23;20004;-78
2020/12/27 11:32:24;;;;;;;2.13;1.92;;;5.40;74.80;;;;;;6216072;23;20099;-78
2020/12/27 11:34:49;;;;;;;15.40;7.50;;;5.40;75.70;;;;;;6244958;23;20007;-78
2020/12/27 11:37:15;;;;;;;6.00;4.05;;;5.50;72.70;;;;;;6232956;23;20019;-78
2020/12/27 11:39:41;;;;;;;2.30;2.10;;;5.50;70.00;;;;;;6242784;23;20005;-78
2020/12/27 11:42:07;;;;;;;4.35;2.75;;;5.50;68.20;;;;;;6244188;22;20010;-78
2020/12/27 11:44:33;;;;;;;3.50;2.20;;;5.40;69.00;;;;;;6244407;23;20036;-77
2020/12/27 11:47:02;;;;;;;2.40;2.20;;;5.50;69.90;;;;;;6244180;23;20034;-78
2020/12/27 11:49:28;;;;;;;105.97;39.17;;;5.50;71.40;;;;;;6242829;22;20011;-78
2020/12/27 11:51:54;;;;;;;5.50;3.90;;;5.50;74.00;;;;;;6243610;23;20033;-78
2020/12/27 11:54:19;;;;;;;4.40;2.85;;;5.50;74.00;;;;;;6241922;23;20004;-78
2020/12/27 11:56:45;;;;;;;3.13;2.83;;;5.50;74.20;;;;;;6242399;23;20012;-78
2020/12/27 11:59:14;;;;;;;4.18;3.35;;;5.50;76.80;;;;;;6230754;23;20011;-78
2020/12/27 12:01:40;;;;;;;4.72;3.17;;;5.50;78.60;;;;;;6227633;22;20004;-78
2020/12/27 12:04:05;;;;;;;3.08;2.72;;;5.50;77.90;;;;;;6228494;22;20008;-78
2020/12/27 12:06:31;;;;;;;3.67;2.92;;;5.50;78.10;;;;;;6232669;23;20622;-78
2020/12/27 12:08:57;;;;;;;4.32;3.38;;;5.50;77.70;;;;;;6229729;23;20007;-78
2020/12/27 12:11:23;;;;;;;7.43;5.28;;;5.50;79.40;;;;;;6227780;23;20004;-77
2020/12/27 12:13:50;;;;;;;4.10;3.70;;;5.50;79.60;;;;;;6228106;23;20757;-75
2020/12/27 12:16:21;;;;;;;6.55;4.47;;;5.50;79.30;;;;;;6227204;23;20008;-75
2020/12/27 12:18:48;;;;;;;4.75;4.13;;;5.60;84.00;;;;;;6230954;23;20000;-75
2020/12/27 12:21:14;;;;;;;8.05;5.00;;;5.60;81.60;;;;;;6245555;22;20001;-75
2020/12/27 12:23:40;;;;;;;5.18;3.58;;;5.60;82.00;;;;;;6241794;23;20015;-75
2020/12/27 12:26:05;;;;;;;3.72;3.42;;;5.50;81.60;;;;;;6243457;23;20399;-75
2020/12/27 12:28:31;;;;;;;40.72;18.55;;;5.40;80.60;;;;;;6243773;23;20042;-75
2020/12/27 12:30:57;;;;;;;5.50;3.70;;;5.40;81.90;;;;;;6243595;23;20000;-75
2020/12/27 12:33:22;;;;;;;10.52;5.15;;;5.50;82.60;;;;;;6218301;23;20005;-75
2020/12/27 12:35:48;;;;;;;6.63;4.50;;;5.50;83.10;;;;;;6244990;22;19996;-75
2020/12/27 12:38:14;;;;;;;5.75;3.97;;;5.50;84.00;;;;;;6244958;22;20008;-75
2020/12/27 12:40:42;;;;;;;6.35;3.83;;;5.60;83.60;;;;;;6243353;23;20058;-75
2020/12/27 12:43:08;;;;;;;3.50;3.20;;;5.50;83.50;;;;;;6241457;23;20015;-75
2020/12/27 12:45:34;;;;;;;3.92;3.42;;;5.50;82.60;;;;;;6244772;22;20436;-77
2020/12/27 12:48:00;;;;;;;4.90;4.40;;;5.50;82.90;;;;;;6243228;23;20008;-77
2020/12/27 12:50:25;;;;;;;6.05;3.83;;;5.50;83.30;;;;;;6242888;23;20082;-77
2020/12/27 12:52:51;;;;;;;7.53;3.83;;;5.50;83.50;;;;;;6244233;23;20001;-77
2020/12/27 12:55:17;;;;;;;7.13;3.80;;;5.60;83.90;;;;;;6242445;23;20030;-77
2020/12/27 12:57:43;;;;;;;4.38;3.30;;;5.60;84.20;;;;;;6241326;23;20004;-77
2020/12/27 13:00:08;;;;;;;3.40;2.80;;;5.60;82.70;;;;;;6242303;23;20074;-77
2020/12/27 13:02:34;;;;;;;5.97;3.20;;;5.60;82.50;;;;;;6239201;23;20091;-77
2020/12/27 13:05:00;;;;;;;3.70;3.40;;;5.60;82.90;;;;;;6243716;23;20321;-77